Summit, South Dakota
Current Conditions -  °F | °C
As of 4:53 PM on Monday 20 Oct 2014 (Local Time) from KATY Reporting Station
Clear Clear  
Wind Chill: 68°   Ceiling: Unl
Heat Index: 68°   Visibility: 10mi
Dew Point: 36°   Wind: 6mph
Humidity: 31%   Direction: 290°WNW
Pressure: 30.03"   Gusts: NA
Location:  45.3°N, 97.04°W
Report Text: KATY 202153Z AUTO 29005KT 10SM CLR 20/02 A3003 RMK AO2 SLP175 T02000022
Loading
Personal Weather Stations






























Interactive Weather Map
Tropical Storm Tracking
New forecast layout! Learn more

10-Day Weather Forecast

Advertisements
Track Severe Weather on mobile